createdAt,value
2022-12-14T00:01:56.766Z,19.27
2022-12-14T00:04:24.034Z,16.03
2022-12-14T00:06:53.505Z,17.27
2022-12-14T00:09:21.740Z,16.93
2022-12-14T00:11:52.137Z,17.77
2022-12-14T00:14:19.872Z,17.50
2022-12-14T00:16:47.956Z,16.10
2022-12-14T00:19:16.287Z,16.70
2022-12-14T00:21:46.606Z,16.30
2022-12-14T00:24:13.815Z,15.57
2022-12-14T00:26:41.543Z,17.30
2022-12-14T00:29:08.993Z,17.50
2022-12-14T00:31:40.569Z,17.07
2022-12-14T00:34:08.420Z,18.53
2022-12-14T00:36:38.105Z,17.93
2022-12-14T00:39:05.441Z,15.93
2022-12-14T00:41:33.237Z,14.30
2022-12-14T00:44:00.654Z,16.30
2022-12-14T00:46:28.209Z,16.27
2022-12-14T00:48:55.561Z,16.70
2022-12-14T00:51:24.654Z,14.70
2022-12-14T00:53:54.780Z,14.77
2022-12-14T00:56:23.530Z,16.50
2022-12-14T00:58:52.960Z,13.70
2022-12-14T01:01:22.941Z,13.63
2022-12-14T01:03:53.557Z,12.17
2022-12-14T01:06:23.844Z,15.23
2022-12-14T01:08:52.114Z,11.70
2022-12-14T01:11:19.923Z,12.47
2022-12-14T01:13:49.803Z,14.17
2022-12-14T01:16:18.332Z,15.23
2022-12-14T01:18:46.093Z,12.80
2022-12-14T01:21:33.856Z,11.90
2022-12-14T01:24:04.033Z,11.50
2022-12-14T01:26:36.308Z,11.17
2022-12-14T01:29:04.497Z,11.83
2022-12-14T01:31:39.014Z,11.00
2022-12-14T01:34:08.203Z,11.27
2022-12-14T01:36:38.123Z,11.90
2022-12-14T01:39:13.130Z,12.63
2022-12-14T01:41:59.292Z,11.03
2022-12-14T01:44:29.363Z,12.53
2022-12-14T01:47:35.614Z,12.33
2022-12-14T01:50:08.653Z,10.10
2022-12-14T01:52:47.988Z,10.20
2022-12-14T01:55:28.182Z,12.57
2022-12-14T01:58:15.747Z,10.10
2022-12-14T02:00:45.162Z,11.43
2022-12-14T02:03:36.963Z,10.40
2022-12-14T02:06:07.186Z,9.53
2022-12-14T02:08:38.425Z,9.87
2022-12-14T02:11:06.094Z,9.37
2022-12-14T02:13:37.701Z,11.10
2022-12-14T02:16:05.408Z,8.73
2022-12-14T02:18:34.715Z,9.57
2022-12-14T02:21:29.476Z,9.97
2022-12-14T02:24:26.000Z,5.13
2022-12-14T02:27:14.154Z,10.03
2022-12-14T02:30:11.008Z,7.40
2022-12-14T02:33:00.678Z,8.80
2022-12-14T02:35:46.632Z,9.67
2022-12-14T02:38:30.350Z,7.23
2022-12-14T02:41:22.108Z,7.33
2022-12-14T02:44:16.750Z,6.63
2022-12-14T02:47:07.753Z,7.23
2022-12-14T02:49:41.470Z,7.30
2022-12-14T02:52:19.832Z,9.40
2022-12-14T02:55:01.504Z,5.37
2022-12-14T02:57:37.205Z,5.20
2022-12-14T03:00:07.067Z,5.47
2022-12-14T03:02:40.778Z,4.93
2022-12-14T03:05:08.460Z,6.47
2022-12-14T03:07:55.998Z,7.20
2022-12-14T03:10:46.138Z,5.43
2022-12-14T03:13:24.929Z,5.30
2022-12-14T03:16:02.130Z,5.80
2022-12-14T03:18:36.466Z,6.43
2022-12-14T03:21:08.041Z,6.30
2022-12-14T03:23:39.714Z,5.77
2022-12-14T03:26:49.072Z,8.17
2022-12-14T03:29:23.226Z,4.87
2022-12-14T03:31:56.168Z,4.37
2022-12-14T03:34:49.781Z,6.47
2022-12-14T03:37:31.208Z,5.43
2022-12-14T03:39:59.167Z,6.00
2022-12-14T03:42:34.884Z,9.40
2022-12-14T03:45:02.445Z,8.37
2022-12-14T03:47:51.083Z,5.47
2022-12-14T03:50:42.556Z,5.73
2022-12-14T03:53:19.843Z,7.87
2022-12-14T03:55:58.153Z,11.20
2022-12-14T03:58:37.189Z,8.00
2022-12-14T04:01:29.724Z,13.60
2022-12-14T04:04:21.527Z,10.43
2022-12-14T04:06:52.628Z,10.37
2022-12-14T04:09:34.725Z,10.70
2022-12-14T04:12:50.930Z,10.50
2022-12-14T04:15:57.554Z,7.67
2022-12-14T04:18:54.381Z,8.07
2022-12-14T04:21:26.573Z,7.90
2022-12-14T04:24:26.954Z,4.27
2022-12-14T04:27:11.351Z,5.97
2022-12-14T04:29:56.561Z,6.40
2022-12-14T04:32:41.550Z,6.50
2022-12-14T04:35:29.577Z,8.73
2022-12-14T04:38:03.998Z,8.47
2022-12-14T04:40:40.964Z,6.33
2022-12-14T04:43:13.706Z,9.13
2022-12-14T04:45:56.624Z,9.60
2022-12-14T04:48:29.293Z,7.70
2022-12-14T04:51:13.552Z,8.80
2022-12-14T04:53:44.649Z,6.47
2022-12-14T04:56:35.514Z,9.77
2022-12-14T04:59:03.497Z,7.57
2022-12-14T05:02:02.922Z,8.67
2022-12-14T05:04:57.844Z,7.93
2022-12-14T05:07:40.564Z,6.07
2022-12-14T05:10:18.896Z,5.50
2022-12-14T05:13:10.992Z,11.53
2022-12-14T05:15:44.819Z,6.17
2022-12-14T05:18:13.492Z,10.10
2022-12-14T05:20:46.023Z,8.70
2022-12-14T05:23:16.141Z,11.67
2022-12-14T05:25:43.972Z,8.57
2022-12-14T05:28:12.885Z,6.03
2022-12-14T05:30:40.511Z,6.77
2022-12-14T05:33:30.564Z,7.37
2022-12-14T05:35:57.861Z,10.00
2022-12-14T05:38:28.825Z,10.20
2022-12-14T05:40:57.954Z,6.33
2022-12-14T05:43:25.810Z,12.50
2022-12-14T05:46:05.951Z,9.63
2022-12-14T05:48:35.409Z,7.73
2022-12-14T05:51:10.273Z,11.57
2022-12-14T05:53:42.838Z,8.00
2022-12-14T05:56:14.016Z,7.17
2022-12-14T05:58:42.129Z,12.07
2022-12-14T06:01:18.743Z,7.47
2022-12-14T06:03:54.226Z,6.57
2022-12-14T06:06:21.846Z,6.70
2022-12-14T06:08:52.205Z,7.87
2022-12-14T06:11:24.094Z,5.70
2022-12-14T06:13:53.354Z,8.60
2022-12-14T06:16:24.221Z,6.67
2022-12-14T06:18:58.464Z,11.73
2022-12-14T06:21:32.561Z,7.67
2022-12-14T06:24:07.759Z,12.10
2022-12-14T06:26:41.153Z,8.23
2022-12-14T06:29:20.631Z,10.27
2022-12-14T06:31:49.545Z,9.67
2022-12-14T06:34:22.378Z,11.60
2022-12-14T06:36:54.290Z,15.57
2022-12-14T06:39:22.601Z,13.43
2022-12-14T06:41:54.161Z,11.53
2022-12-14T06:44:22.812Z,9.77
2022-12-14T06:46:51.041Z,9.27
2022-12-14T06:49:21.945Z,12.77
2022-12-14T06:51:50.675Z,10.80
2022-12-14T06:54:23.991Z,11.17
2022-12-14T06:56:52.062Z,10.60
2022-12-14T06:59:21.067Z,10.47
2022-12-14T07:01:50.164Z,8.20
2022-12-14T07:04:23.303Z,12.90
2022-12-14T07:06:51.408Z,13.67
2022-12-14T07:09:20.434Z,8.23
2022-12-14T07:11:52.367Z,12.90
2022-12-14T07:14:20.973Z,13.30
2022-12-14T07:16:52.977Z,13.90
2022-12-14T07:19:21.190Z,8.03
2022-12-14T07:21:51.738Z,10.80
2022-12-14T07:24:20.428Z,9.57
2022-12-14T07:26:48.889Z,11.33
2022-12-14T07:29:17.543Z,11.67
2022-12-14T07:31:49.461Z,11.77
2022-12-14T07:34:18.196Z,20.03
2022-12-14T07:36:46.707Z,11.03
2022-12-14T07:39:18.039Z,10.17
2022-12-14T07:41:48.287Z,10.60
2022-12-14T07:44:16.247Z,13.23
2022-12-14T07:46:43.949Z,11.57
2022-12-14T07:49:26.068Z,9.83
2022-12-14T07:51:53.844Z,15.97
2022-12-14T07:54:22.151Z,13.73
2022-12-14T07:56:51.191Z,14.20
2022-12-14T07:59:20.164Z,15.33
2022-12-14T08:01:47.877Z,13.33
2022-12-14T08:04:20.257Z,14.97
2022-12-14T08:06:50.850Z,16.33
2022-12-14T08:09:20.441Z,13.03
2022-12-14T08:11:47.767Z,18.47
2022-12-14T08:14:17.949Z,16.17
2022-12-14T08:16:47.088Z,16.87
2022-12-14T08:19:16.290Z,18.23
2022-12-14T08:21:45.794Z,17.83
2022-12-14T08:24:23.267Z,20.30
2022-12-14T08:26:52.072Z,16.03
2022-12-14T08:29:19.970Z,18.13
2022-12-14T08:31:47.911Z,22.20
2022-12-14T08:34:22.392Z,19.17
2022-12-14T08:36:50.078Z,21.93
2022-12-14T08:39:19.440Z,22.43
2022-12-14T08:41:46.671Z,21.60
2022-12-14T08:44:17.539Z,22.60
2022-12-14T08:46:47.564Z,21.50
2022-12-14T08:49:18.538Z,26.30
2022-12-14T08:51:47.253Z,24.20
2022-12-14T08:54:16.717Z,25.63
2022-12-14T08:56:44.872Z,25.10
2022-12-14T08:59:36.557Z,24.73
2022-12-14T09:02:04.364Z,26.77
2022-12-14T09:04:34.994Z,25.33
2022-12-14T09:07:03.731Z,24.10
2022-12-14T09:09:38.303Z,24.80
2022-12-14T09:12:08.954Z,24.83
2022-12-14T09:14:37.887Z,22.57
2022-12-14T09:17:06.315Z,21.93
2022-12-14T09:19:35.138Z,23.73
2022-12-14T09:22:03.282Z,24.90
2022-12-14T09:24:34.784Z,23.27
2022-12-14T09:27:04.639Z,24.07
2022-12-14T09:29:33.967Z,22.37
2022-12-14T09:32:02.507Z,24.53
2022-12-14T09:34:34.877Z,22.13
2022-12-14T09:37:05.374Z,24.83
2022-12-14T09:39:33.904Z,22.73
2022-12-14T09:42:24.278Z,26.13
2022-12-14T09:45:03.245Z,22.53
2022-12-14T09:47:43.694Z,22.20
2022-12-14T09:50:22.676Z,21.87
2022-12-14T09:52:52.022Z,23.43
2022-12-14T09:55:42.494Z,22.63
2022-12-14T09:58:24.193Z,22.07
2022-12-14T10:01:22.649Z,22.20
2022-12-14T10:04:08.041Z,22.20
2022-12-14T10:07:01.602Z,23.00
2022-12-14T10:09:37.802Z,22.23
2022-12-14T10:12:34.187Z,23.63
2022-12-14T10:15:10.531Z,22.23
2022-12-14T10:18:00.505Z,21.90
2022-12-14T10:20:48.619Z,22.67
2022-12-14T10:23:22.994Z,22.40
2022-12-14T10:25:55.587Z,22.23
2022-12-14T10:28:40.588Z,21.50
2022-12-14T10:31:14.083Z,22.63
2022-12-14T10:33:46.820Z,23.90
2022-12-14T10:36:43.292Z,21.80
2022-12-14T10:39:49.314Z,22.67
2022-12-14T10:42:34.602Z,21.87
2022-12-14T10:45:39.268Z,22.63
2022-12-14T10:48:37.314Z,21.97
2022-12-14T10:51:30.694Z,23.17
2022-12-14T10:53:57.758Z,23.40
2022-12-14T10:56:34.675Z,21.77
2022-12-14T10:59:26.008Z,22.23
2022-12-14T11:02:04.172Z,21.73
2022-12-14T11:04:38.847Z,23.17
2022-12-14T11:07:11.829Z,23.23
2022-12-14T11:09:39.855Z,21.70
2022-12-14T11:12:27.843Z,22.03
2022-12-14T11:14:56.631Z,21.67
2022-12-14T11:17:35.826Z,22.57
2022-12-14T11:36:00.651Z,21.90
2022-12-14T11:38:30.404Z,21.77
2022-12-14T11:40:58.797Z,22.53
2022-12-14T11:43:34.929Z,22.40
2022-12-14T11:46:02.469Z,22.30
2022-12-14T11:48:31.216Z,21.23
2022-12-14T11:51:13.544Z,21.97
2022-12-14T11:53:41.727Z,21.63
2022-12-14T11:56:16.862Z,21.60
2022-12-14T11:58:52.768Z,20.50
2022-12-14T12:01:25.956Z,22.47
2022-12-14T12:03:57.334Z,19.13
2022-12-14T12:06:30.002Z,20.73
2022-12-14T12:09:03.066Z,19.87
2022-12-14T12:11:33.500Z,19.90
2022-12-14T12:14:03.580Z,19.63
2022-12-14T12:16:35.592Z,20.70
2022-12-14T12:19:29.386Z,20.27
2022-12-14T12:22:00.613Z,19.97
2022-12-14T12:25:23.619Z,19.00
2022-12-14T12:27:39.890Z,19.33
2022-12-14T12:30:20.560Z,18.50
2022-12-14T12:32:56.262Z,18.47
2022-12-14T12:35:39.930Z,17.90
2022-12-14T12:38:18.987Z,18.30
2022-12-14T12:41:26.508Z,16.90
2022-12-14T12:44:01.078Z,17.47
2022-12-14T12:46:48.533Z,16.70
2022-12-14T12:49:26.338Z,16.73
2022-12-14T12:52:08.206Z,16.77
2022-12-14T12:54:45.252Z,16.33
2022-12-14T12:57:14.986Z,16.50
2022-12-14T12:59:52.814Z,16.40
2022-12-14T13:02:37.645Z,17.30
2022-12-14T13:05:44.371Z,16.27
2022-12-14T13:08:28.010Z,16.63
2022-12-14T13:11:25.166Z,17.40
2022-12-14T13:13:58.721Z,14.53
2022-12-14T13:16:37.321Z,15.97
2022-12-14T13:19:49.657Z,15.93
2022-12-14T13:22:15.234Z,14.33
2022-12-14T13:24:50.147Z,15.43
2022-12-14T13:27:31.787Z,15.33
2022-12-14T13:30:22.588Z,14.30
2022-12-14T13:33:16.433Z,13.57
2022-12-14T13:36:02.000Z,14.30
2022-12-14T13:39:12.770Z,13.93
2022-12-14T13:42:27.834Z,13.67
2022-12-14T13:45:01.766Z,12.83
2022-12-14T13:48:03.796Z,13.10
2022-12-14T13:50:38.948Z,12.37
2022-12-14T13:53:11.151Z,12.37
2022-12-14T13:55:52.283Z,13.73
2022-12-14T13:58:38.954Z,14.23
2022-12-14T14:01:36.027Z,14.00
2022-12-14T14:04:15.159Z,12.97
2022-12-14T14:06:49.769Z,13.17
2022-12-14T14:09:31.066Z,13.90
2022-12-14T14:12:25.026Z,13.13
2022-12-14T14:15:26.128Z,14.07
2022-12-14T14:17:54.389Z,12.97
2022-12-14T14:20:43.532Z,11.93
2022-12-14T14:23:16.086Z,11.27
2022-12-14T14:25:49.392Z,11.67
2022-12-14T14:28:22.620Z,11.47
2022-12-14T14:30:57.153Z,12.63
2022-12-14T14:33:46.441Z,12.60
2022-12-14T14:36:26.322Z,12.53
2022-12-14T14:38:55.092Z,11.67
2022-12-14T14:41:28.138Z,14.70
2022-12-14T14:44:03.269Z,14.50
2022-12-14T14:46:39.332Z,14.00
2022-12-14T14:49:18.571Z,13.90
2022-12-14T14:51:46.177Z,14.30
2022-12-14T14:57:54.422Z,14.97
2022-12-14T15:00:22.878Z,15.60
2022-12-14T15:02:53.236Z,15.23
2022-12-14T15:05:41.905Z,17.10
2022-12-14T15:08:29.197Z,17.77
2022-12-14T15:10:58.380Z,16.77
2022-12-14T15:13:31.275Z,16.63
2022-12-14T15:15:58.699Z,18.60
2022-12-14T15:18:28.770Z,18.27
2022-12-14T15:21:14.291Z,21.83
2022-12-14T15:23:49.432Z,16.47
2022-12-14T15:26:33.100Z,17.17
2022-12-14T15:29:02.206Z,15.63
2022-12-14T15:31:39.954Z,16.50
2022-12-14T15:34:08.280Z,17.57
2022-12-14T15:36:40.115Z,17.53
2022-12-14T15:39:26.344Z,19.23
2022-12-14T15:42:02.578Z,17.83
2022-12-14T15:44:29.996Z,22.90
2022-12-14T15:46:57.148Z,17.77
2022-12-14T15:49:24.616Z,18.63
2022-12-14T15:51:52.033Z,15.17
2022-12-14T15:54:22.494Z,19.47
2022-12-14T15:56:53.418Z,18.07
2022-12-14T15:59:33.368Z,17.57
2022-12-14T16:02:19.387Z,15.60
2022-12-14T16:04:47.607Z,18.13
2022-12-14T16:07:18.682Z,19.77
2022-12-14T16:15:53.343Z,19.27
2022-12-14T16:18:22.066Z,16.60
2022-12-14T16:21:04.836Z,15.53
2022-12-14T16:23:41.757Z,18.13
2022-12-14T16:26:34.943Z,17.87
2022-12-14T16:29:31.026Z,15.27
2022-12-14T16:32:05.385Z,16.53
2022-12-14T16:34:34.724Z,16.30
2022-12-14T16:37:31.662Z,16.43
2022-12-14T16:39:53.753Z,16.40
2022-12-14T16:42:25.074Z,16.30
2022-12-14T16:44:54.350Z,17.07
2022-12-14T16:47:21.823Z,16.27
2022-12-14T16:50:01.229Z,14.83
2022-12-14T16:52:32.813Z,15.07
2022-12-14T16:55:17.700Z,17.10
2022-12-14T16:57:47.895Z,16.60
2022-12-14T17:00:38.621Z,15.27
2022-12-14T17:03:09.756Z,18.50
2022-12-14T17:05:41.195Z,16.77
2022-12-14T17:08:11.675Z,18.27
2022-12-14T17:10:39.742Z,19.90
2022-12-14T17:13:07.033Z,15.93
2022-12-14T17:15:35.801Z,20.13
2022-12-14T17:18:05.938Z,16.80
2022-12-14T17:20:37.308Z,19.67
2022-12-14T17:23:08.158Z,17.70
2022-12-14T17:25:36.491Z,17.97
2022-12-14T17:28:04.527Z,19.33
2022-12-14T17:30:35.206Z,19.13
2022-12-14T17:33:02.556Z,13.97
2022-12-14T17:35:34.580Z,19.70
2022-12-14T17:38:02.337Z,20.63
2022-12-14T17:40:32.318Z,16.13
2022-12-14T17:43:02.111Z,23.30
2022-12-14T17:45:30.547Z,20.90
2022-12-14T17:47:58.604Z,16.37
2022-12-14T17:50:26.415Z,18.53
2022-12-14T17:52:53.869Z,19.20
2022-12-14T17:55:25.977Z,17.93
2022-12-14T17:57:54.135Z,18.73
2022-12-14T18:00:44.812Z,18.90
2022-12-14T18:03:14.573Z,18.30
2022-12-14T18:05:48.644Z,15.17
2022-12-14T18:08:18.023Z,18.03
2022-12-14T18:10:46.689Z,16.20
2022-12-14T18:13:21.430Z,15.97
2022-12-14T18:15:51.404Z,18.13
2022-12-14T18:18:23.960Z,18.13
2022-12-14T18:21:00.458Z,21.50
2022-12-14T18:23:29.612Z,19.13
2022-12-14T18:25:58.958Z,20.00
2022-12-14T18:28:26.444Z,19.23
2022-12-14T18:30:57.573Z,17.10
2022-12-14T18:33:27.167Z,17.10
2022-12-14T18:35:56.756Z,20.10
2022-12-14T18:38:24.311Z,17.00
2022-12-14T18:40:54.421Z,20.10
2022-12-14T18:43:24.797Z,18.60
2022-12-14T18:45:53.575Z,19.27
2022-12-14T18:48:21.313Z,19.20
2022-12-14T18:50:50.081Z,21.23
2022-12-14T18:53:20.197Z,15.80
2022-12-14T18:55:48.418Z,19.53
2022-12-14T18:58:21.888Z,18.73
2022-12-14T19:00:51.608Z,20.23
2022-12-14T19:03:19.132Z,19.77
2022-12-14T19:05:46.707Z,19.37
2022-12-14T19:08:13.829Z,20.37
2022-12-14T19:10:44.421Z,18.03
2022-12-14T19:13:26.240Z,19.13
2022-12-14T19:15:54.447Z,16.97
2022-12-14T19:18:21.633Z,18.83
2022-12-14T19:20:49.603Z,17.80
2022-12-14T19:23:19.168Z,18.63
2022-12-14T19:25:47.656Z,16.83
2022-12-14T19:28:31.575Z,19.43
2022-12-14T19:31:01.807Z,21.77
2022-12-14T19:33:31.303Z,19.20
2022-12-14T19:36:00.662Z,18.67
2022-12-14T19:38:28.611Z,18.80
2022-12-14T19:41:00.977Z,15.90
2022-12-14T19:43:40.212Z,17.30
2022-12-14T19:46:10.217Z,18.30
2022-12-14T19:48:38.650Z,18.00
2022-12-14T19:51:22.142Z,18.33
2022-12-14T19:53:54.717Z,17.43
2022-12-14T19:56:24.230Z,17.23
2022-12-14T20:04:40.380Z,18.03
2022-12-14T20:10:00.828Z,18.83
2022-12-14T20:12:36.044Z,17.93
2022-12-14T20:15:05.010Z,18.03
2022-12-14T20:17:37.088Z,15.93
2022-12-14T20:26:03.955Z,16.70
2022-12-14T20:52:46.772Z,21.47
2022-12-14T20:55:16.594Z,18.27
2022-12-14T20:57:43.541Z,18.63
2022-12-14T21:00:12.265Z,17.27
2022-12-14T21:02:39.446Z,20.37
2022-12-14T21:05:07.529Z,19.03
2022-12-14T21:07:34.773Z,18.30
2022-12-14T21:10:01.982Z,20.90
2022-12-14T21:12:29.002Z,21.00
2022-12-14T21:14:56.785Z,20.43
2022-12-14T21:17:26.345Z,19.03
2022-12-14T21:19:54.466Z,19.80
2022-12-14T21:22:24.352Z,20.10
2022-12-14T21:25:07.827Z,19.57
2022-12-14T21:27:38.351Z,21.23
2022-12-14T21:30:08.541Z,19.90
2022-12-14T21:32:37.182Z,19.03
2022-12-14T21:35:04.799Z,19.47
2022-12-14T21:37:31.814Z,16.90
2022-12-14T21:40:00.243Z,15.63
2022-12-14T21:42:27.237Z,17.50
2022-12-14T21:44:55.425Z,17.47
2022-12-14T21:47:25.550Z,16.07
2022-12-14T21:49:53.412Z,16.97
2022-12-14T21:52:23.514Z,18.07
2022-12-14T21:54:50.956Z,17.07
2022-12-14T21:57:49.320Z,14.87
2022-12-14T22:00:18.622Z,16.87
2022-12-14T22:02:45.943Z,16.47
2022-12-14T22:05:13.499Z,16.57
2022-12-14T22:07:40.498Z,17.60
2022-12-14T22:10:08.057Z,17.47
2022-12-14T22:12:35.024Z,19.23
2022-12-14T22:15:02.751Z,20.00
2022-12-14T22:17:29.741Z,17.93
2022-12-14T22:19:56.992Z,19.27
2022-12-14T22:22:24.180Z,17.53
2022-12-14T22:24:51.689Z,18.20
2022-12-14T22:27:19.482Z,17.63
2022-12-14T22:29:46.867Z,18.90
2022-12-14T22:32:14.393Z,17.93
2022-12-14T22:34:41.999Z,18.87
2022-12-14T22:37:09.101Z,16.90
2022-12-14T22:39:36.370Z,15.90
2022-12-14T22:42:03.430Z,17.87
2022-12-14T22:44:30.654Z,17.37
2022-12-14T22:46:57.848Z,17.43
2022-12-14T22:49:25.115Z,18.93
2022-12-14T22:51:53.410Z,20.37
2022-12-14T22:54:26.992Z,19.23
2022-12-14T22:57:07.558Z,17.50
2022-12-14T22:59:41.850Z,17.13
2022-12-14T23:02:09.137Z,15.10
2022-12-14T23:04:37.987Z,16.33
2022-12-14T23:07:05.905Z,15.93
2022-12-14T23:09:54.799Z,15.87
2022-12-14T23:12:40.736Z,16.70
2022-12-14T23:15:27.055Z,17.63
2022-12-14T23:18:26.163Z,15.77
2022-12-14T23:21:12.718Z,17.33
2022-12-14T23:23:59.863Z,16.20
2022-12-14T23:26:46.242Z,16.27
2022-12-14T23:29:32.397Z,14.63
2022-12-14T23:32:18.246Z,16.33
2022-12-14T23:35:03.872Z,14.33
2022-12-14T23:37:49.495Z,15.90
2022-12-14T23:40:35.142Z,14.67
2022-12-14T23:43:32.415Z,16.93
2022-12-14T23:46:18.656Z,15.50
2022-12-14T23:49:04.752Z,14.13
2022-12-14T23:51:51.078Z,16.97
2022-12-14T23:54:36.787Z,16.10
2022-12-14T23:57:25.807Z,14.70
